sensor_id;sensor_type;location;lat;lon;timestamp;temperature;humidity
21672;DHT22;10997;52.242;8.168;2022-11-11T00:02:00;9.40;99.90
21672;DHT22;10997;52.242;8.168;2022-11-11T00:07:01;9.40;99.90
21672;DHT22;10997;52.242;8.168;2022-11-11T00:12:02;9.40;99.90
21672;DHT22;10997;52.242;8.168;2022-11-11T00:17:03;9.40;99.90
21672;DHT22;10997;52.242;8.168;2022-11-11T00:22:22;9.40;99.90
21672;DHT22;10997;52.242;8.168;2022-11-11T00:27:41;9.40;99.90
21672;DHT22;10997;52.242;8.168;2022-11-11T00:32:42;9.40;99.90
21672;DHT22;10997;52.242;8.168;2022-11-11T00:37:44;9.30;99.90
21672;DHT22;10997;52.242;8.168;2022-11-11T00:42:45;9.40;99.90
21672;DHT22;10997;52.242;8.168;2022-11-11T00:47:46;9.40;99.90
21672;DHT22;10997;52.242;8.168;2022-11-11T00:53:23;9.50;99.90
21672;DHT22;10997;52.242;8.168;2022-11-11T00:58:25;9.60;99.90
21672;DHT22;10997;52.242;8.168;2022-11-11T01:03:27;9.50;99.90
21672;DHT22;10997;52.242;8.168;2022-11-11T01:08:28;9.50;99.90
21672;DHT22;10997;52.242;8.168;2022-11-11T01:13:31;9.50;99.90
21672;DHT22;10997;52.242;8.168;2022-11-11T01:18:32;9.40;99.90
21672;DHT22;10997;52.242;8.168;2022-11-11T01:23:34;9.40;99.90
21672;DHT22;10997;52.242;8.168;2022-11-11T01:28:36;9.30;99.90
21672;DHT22;10997;52.242;8.168;2022-11-11T01:33:37;9.30;99.90
21672;DHT22;10997;52.242;8.168;2022-11-11T01:38:39;9.20;99.90
21672;DHT22;10997;52.242;8.168;2022-11-11T01:43:39;9.30;99.90
21672;DHT22;10997;52.242;8.168;2022-11-11T01:48:44;9.30;99.90
21672;DHT22;10997;52.242;8.168;2022-11-11T01:54:15;9.30;99.90
21672;DHT22;10997;52.242;8.168;2022-11-11T01:59:18;9.20;99.90
21672;DHT22;10997;52.242;8.168;2022-11-11T02:04:19;9.10;99.90
21672;DHT22;10997;52.242;8.168;2022-11-11T02:09:43;9.10;99.90
21672;DHT22;10997;52.242;8.168;2022-11-11T02:14:48;9.10;99.90
21672;DHT22;10997;52.242;8.168;2022-11-11T02:19:57;9.20;99.90
21672;DHT22;10997;52.242;8.168;2022-11-11T02:25:00;9.10;99.90
21672;DHT22;10997;52.242;8.168;2022-11-11T02:30:05;9.10;99.90
21672;DHT22;10997;52.242;8.168;2022-11-11T02:35:20;9.00;99.90
21672;DHT22;10997;52.242;8.168;2022-11-11T02:40:37;8.90;99.90
21672;DHT22;10997;52.242;8.168;2022-11-11T02:46:00;9.00;99.90
21672;DHT22;10997;52.242;8.168;2022-11-11T02:51:00;8.90;99.90
21672;DHT22;10997;52.242;8.168;2022-11-11T02:56:01;8.90;99.90
21672;DHT22;10997;52.242;8.168;2022-11-11T03:01:02;8.90;99.90
21672;DHT22;10997;52.242;8.168;2022-11-11T03:06:08;8.90;99.90
21672;DHT22;10997;52.242;8.168;2022-11-11T03:11:09;8.90;99.90
21672;DHT22;10997;52.242;8.168;2022-11-11T03:16:10;8.90;99.90
21672;DHT22;10997;52.242;8.168;2022-11-11T03:21:30;9.00;99.90
21672;DHT22;10997;52.242;8.168;2022-11-11T03:26:31;8.90;99.90
21672;DHT22;10997;52.242;8.168;2022-11-11T03:31:32;8.90;99.90
21672;DHT22;10997;52.242;8.168;2022-11-11T03:36:32;9.00;99.90
21672;DHT22;10997;52.242;8.168;2022-11-11T03:41:53;8.90;99.90
21672;DHT22;10997;52.242;8.168;2022-11-11T03:46:54;8.90;99.90
21672;DHT22;10997;52.242;8.168;2022-11-11T03:51:55;8.90;99.90
21672;DHT22;10997;52.242;8.168;2022-11-11T03:56:56;8.80;99.90
21672;DHT22;10997;52.242;8.168;2022-11-11T04:02:16;8.80;99.90
21672;DHT22;10997;52.242;8.168;2022-11-11T04:07:35;8.80;99.90
21672;DHT22;10997;52.242;8.168;2022-11-11T04:12:55;8.80;99.90
21672;DHT22;10997;52.242;8.168;2022-11-11T04:18:14;8.70;99.90
21672;DHT22;10997;52.242;8.168;2022-11-11T04:23:24;8.70;99.90
21672;DHT22;10997;52.242;8.168;2022-11-11T04:28:25;8.70;99.90
21672;DHT22;10997;52.242;8.168;2022-11-11T04:33:46;8.70;99.90
21672;DHT22;10997;52.242;8.168;2022-11-11T04:38:46;8.70;99.90
21672;DHT22;10997;52.242;8.168;2022-11-11T04:44:06;8.60;99.90
21672;DHT22;10997;52.242;8.168;2022-11-11T04:49:25;8.60;99.90
21672;DHT22;10997;52.242;8.168;2022-11-11T04:54:25;8.60;99.90
21672;DHT22;10997;52.242;8.168;2022-11-11T04:59:26;8.50;99.90
21672;DHT22;10997;52.242;8.168;2022-11-11T05:04:26;8.50;99.90
21672;DHT22;10997;52.242;8.168;2022-11-11T05:09:27;8.60;99.90
21672;DHT22;10997;52.242;8.168;2022-11-11T05:14:28;8.60;99.90
21672;DHT22;10997;52.242;8.168;2022-11-11T05:19:47;8.60;99.90
21672;DHT22;10997;52.242;8.168;2022-11-11T05:25:07;8.60;99.90
21672;DHT22;10997;52.242;8.168;2022-11-11T05:30:28;8.50;99.90
21672;DHT22;10997;52.242;8.168;2022-11-11T05:35:29;8.50;99.90
21672;DHT22;10997;52.242;8.168;2022-11-11T05:40:30;8.60;99.90
21672;DHT22;10997;52.242;8.168;2022-11-11T05:45:30;8.60;99.90
21672;DHT22;10997;52.242;8.168;2022-11-11T05:50:31;8.50;99.90
21672;DHT22;10997;52.242;8.168;2022-11-11T05:55:32;8.50;99.90
21672;DHT22;10997;52.242;8.168;2022-11-11T06:00:32;8.50;99.90
21672;DHT22;10997;52.242;8.168;2022-11-11T06:05:35;8.50;99.90
21672;DHT22;10997;52.242;8.168;2022-11-11T06:10:36;8.50;99.90
21672;DHT22;10997;52.242;8.168;2022-11-11T06:15:38;8.50;99.90
21672;DHT22;10997;52.242;8.168;2022-11-11T06:20:40;8.50;99.90
21672;DHT22;10997;52.242;8.168;2022-11-11T06:25:40;8.50;99.90
21672;DHT22;10997;52.242;8.168;2022-11-11T06:30:59;8.50;99.90
21672;DHT22;10997;52.242;8.168;2022-11-11T06:36:00;8.50;99.90
21672;DHT22;10997;52.242;8.168;2022-11-11T06:41:01;8.60;99.90
21672;DHT22;10997;52.242;8.168;2022-11-11T06:46:02;8.60;99.90
21672;DHT22;10997;52.242;8.168;2022-11-11T06:51:04;8.60;99.90
21672;DHT22;10997;52.242;8.168;2022-11-11T06:56:06;8.60;99.90
21672;DHT22;10997;52.242;8.168;2022-11-11T07:01:08;8.60;99.90
21672;DHT22;10997;52.242;8.168;2022-11-11T07:06:09;8.70;99.90
21672;DHT22;10997;52.242;8.168;2022-11-11T07:11:10;8.70;99.90
21672;DHT22;10997;52.242;8.168;2022-11-11T07:16:10;8.70;99.90
21672;DHT22;10997;52.242;8.168;2022-11-11T07:21:11;8.70;99.90
21672;DHT22;10997;52.242;8.168;2022-11-11T07:26:12;8.70;99.90
21672;DHT22;10997;52.242;8.168;2022-11-11T07:31:12;8.80;99.90
21672;DHT22;10997;52.242;8.168;2022-11-11T07:36:14;8.80;99.90
21672;DHT22;10997;52.242;8.168;2022-11-11T07:41:14;8.90;99.90
21672;DHT22;10997;52.242;8.168;2022-11-11T07:46:15;9.00;99.90
21672;DHT22;10997;52.242;8.168;2022-11-11T07:51:16;9.10;99.90
21672;DHT22;10997;52.242;8.168;2022-11-11T07:56:16;9.20;99.90
21672;DHT22;10997;52.242;8.168;2022-11-11T08:01:17;9.30;99.90
21672;DHT22;10997;52.242;8.168;2022-11-11T08:06:19;9.40;99.90
21672;DHT22;10997;52.242;8.168;2022-11-11T08:11:19;9.60;99.90
21672;DHT22;10997;52.242;8.168;2022-11-11T08:16:40;9.60;99.90
21672;DHT22;10997;52.242;8.168;2022-11-11T08:21:41;9.70;99.90
21672;DHT22;10997;52.242;8.168;2022-11-11T08:26:41;9.90;99.90
21672;DHT22;10997;52.242;8.168;2022-11-11T08:31:42;9.90;99.90
21672;DHT22;10997;52.242;8.168;2022-11-11T08:36:42;10.10;99.90
21672;DHT22;10997;52.242;8.168;2022-11-11T08:41:46;10.20;99.90
21672;DHT22;10997;52.242;8.168;2022-11-11T08:46:47;10.30;99.90
21672;DHT22;10997;52.242;8.168;2022-11-11T08:51:48;10.50;99.90
21672;DHT22;10997;52.242;8.168;2022-11-11T08:56:48;10.60;99.90
21672;DHT22;10997;52.242;8.168;2022-11-11T09:01:49;10.60;99.90
21672;DHT22;10997;52.242;8.168;2022-11-11T09:06:50;10.70;99.90
21672;DHT22;10997;52.242;8.168;2022-11-11T09:11:50;10.70;99.90
21672;DHT22;10997;52.242;8.168;2022-11-11T09:16:51;10.80;99.90
21672;DHT22;10997;52.242;8.168;2022-11-11T09:21:52;10.90;99.90
21672;DHT22;10997;52.242;8.168;2022-11-11T09:26:52;11.00;99.90
21672;DHT22;10997;52.242;8.168;2022-11-11T09:31:53;11.10;99.90
21672;DHT22;10997;52.242;8.168;2022-11-11T09:36:54;11.20;99.90
21672;DHT22;10997;52.242;8.168;2022-11-11T09:57:55;11.50;99.90
21672;DHT22;10997;52.242;8.168;2022-11-11T10:03:05;11.60;99.90
21672;DHT22;10997;52.242;8.168;2022-11-11T10:13:28;11.70;99.90
21672;DHT22;10997;52.242;8.168;2022-11-11T10:18:55;11.70;99.90
21672;DHT22;10997;52.242;8.168;2022-11-11T10:24:01;11.70;99.90
21672;DHT22;10997;52.242;8.168;2022-11-11T10:34:17;11.90;99.90
21672;DHT22;10997;52.242;8.168;2022-11-11T10:39:24;11.90;99.90
21672;DHT22;10997;52.242;8.168;2022-11-11T10:44:28;12.00;99.90
21672;DHT22;10997;52.242;8.168;2022-11-11T10:49:36;12.00;99.90
21672;DHT22;10997;52.242;8.168;2022-11-11T10:54:46;12.20;99.90
21672;DHT22;10997;52.242;8.168;2022-11-11T10:59:55;12.30;99.90
21672;DHT22;10997;52.242;8.168;2022-11-11T11:10:44;12.50;99.90
21672;DHT22;10997;52.242;8.168;2022-11-11T11:15:51;12.70;99.90
21672;DHT22;10997;52.242;8.168;2022-11-11T11:25:58;13.00;99.90
21672;DHT22;10997;52.242;8.168;2022-11-11T11:31:04;13.10;99.90
21672;DHT22;10997;52.242;8.168;2022-11-11T11:36:16;13.40;99.90
21672;DHT22;10997;52.242;8.168;2022-11-11T11:41:38;13.60;99.90
21672;DHT22;10997;52.242;8.168;2022-11-11T11:46:41;13.60;99.90
21672;DHT22;10997;52.242;8.168;2022-11-11T11:52:01;13.80;99.90
21672;DHT22;10997;52.242;8.168;2022-11-11T12:13:33;14.30;99.90
21672;DHT22;10997;52.242;8.168;2022-11-11T12:18:49;14.50;99.90
21672;DHT22;10997;52.242;8.168;2022-11-11T12:24:21;14.60;99.90
21672;DHT22;10997;52.242;8.168;2022-11-11T12:35:21;15.00;99.90
21672;DHT22;10997;52.242;8.168;2022-11-11T12:46:11;15.20;99.90
21672;DHT22;10997;52.242;8.168;2022-11-11T13:07:25;15.20;99.90
21672;DHT22;10997;52.242;8.168;2022-11-11T13:12:48;15.30;99.90
21672;DHT22;10997;52.242;8.168;2022-11-11T13:17:52;15.40;99.90
21672;DHT22;10997;52.242;8.168;2022-11-11T13:22:53;15.40;99.90
21672;DHT22;10997;52.242;8.168;2022-11-11T13:28:05;15.40;99.90
21672;DHT22;10997;52.242;8.168;2022-11-11T13:33:10;15.40;99.90
21672;DHT22;10997;52.242;8.168;2022-11-11T13:38:21;15.50;99.90
21672;DHT22;10997;52.242;8.168;2022-11-11T13:43:30;15.40;99.90
21672;DHT22;10997;52.242;8.168;2022-11-11T13:48:52;15.40;99.90
21672;DHT22;10997;52.242;8.168;2022-11-11T13:53:53;15.40;99.90
21672;DHT22;10997;52.242;8.168;2022-11-11T13:58:55;15.40;99.90
21672;DHT22;10997;52.242;8.168;2022-11-11T14:03:59;15.50;99.90
21672;DHT22;10997;52.242;8.168;2022-11-11T14:09:00;15.40;99.90
21672;DHT22;10997;52.242;8.168;2022-11-11T14:19:33;15.30;99.90
21672;DHT22;10997;52.242;8.168;2022-11-11T14:24:39;15.20;99.90
21672;DHT22;10997;52.242;8.168;2022-11-11T14:29:52;15.10;99.90
21672;DHT22;10997;52.242;8.168;2022-11-11T14:35:32;15.10;99.90
21672;DHT22;10997;52.242;8.168;2022-11-11T14:40:35;15.00;99.90
21672;DHT22;10997;52.242;8.168;2022-11-11T14:50:41;14.90;99.90
21672;DHT22;10997;52.242;8.168;2022-11-11T14:55:50;14.80;99.90
21672;DHT22;10997;52.242;8.168;2022-11-11T15:00:59;14.70;99.90
21672;DHT22;10997;52.242;8.168;2022-11-11T15:06:17;14.50;99.90
21672;DHT22;10997;52.242;8.168;2022-11-11T15:11:36;14.30;99.90
21672;DHT22;10997;52.242;8.168;2022-11-11T15:38:35;13.30;99.90
21672;DHT22;10997;52.242;8.168;2022-11-11T15:43:38;13.10;99.90
21672;DHT22;10997;52.242;8.168;2022-11-11T15:48:42;13.00;99.90
21672;DHT22;10997;52.242;8.168;2022-11-11T15:53:43;12.80;99.90
21672;DHT22;10997;52.242;8.168;2022-11-11T15:58:44;12.80;99.90
21672;DHT22;10997;52.242;8.168;2022-11-11T16:03:44;12.70;99.90
21672;DHT22;10997;52.242;8.168;2022-11-11T16:08:48;12.60;99.90
21672;DHT22;10997;52.242;8.168;2022-11-11T16:14:03;12.60;99.90
21672;DHT22;10997;52.242;8.168;2022-11-11T16:19:31;12.60;99.90
21672;DHT22;10997;52.242;8.168;2022-11-11T16:24:36;12.40;99.90
21672;DHT22;10997;52.242;8.168;2022-11-11T16:29:40;12.40;99.90
21672;DHT22;10997;52.242;8.168;2022-11-11T16:34:42;12.20;99.90
21672;DHT22;10997;52.242;8.168;2022-11-11T16:39:44;12.00;99.90
21672;DHT22;10997;52.242;8.168;2022-11-11T16:50:25;11.70;99.90
21672;DHT22;10997;52.242;8.168;2022-11-11T16:55:44;11.60;99.90
21672;DHT22;10997;52.242;8.168;2022-11-11T17:00:45;11.50;99.90
21672;DHT22;10997;52.242;8.168;2022-11-11T17:10:53;11.60;99.90
21672;DHT22;10997;52.242;8.168;2022-11-11T17:15:59;11.70;99.90
21672;DHT22;10997;52.242;8.168;2022-11-11T17:21:03;11.60;99.90
21672;DHT22;10997;52.242;8.168;2022-11-11T17:26:04;11.60;99.90
21672;DHT22;10997;52.242;8.168;2022-11-11T17:31:07;11.50;99.90
21672;DHT22;10997;52.242;8.168;2022-11-11T17:36:08;11.50;99.90
21672;DHT22;10997;52.242;8.168;2022-11-11T17:41:12;11.30;99.90
21672;DHT22;10997;52.242;8.168;2022-11-11T17:46:13;11.30;99.90
21672;DHT22;10997;52.242;8.168;2022-11-11T17:51:14;11.20;99.90
21672;DHT22;10997;52.242;8.168;2022-11-11T17:56:14;11.20;99.90
21672;DHT22;10997;52.242;8.168;2022-11-11T18:01:15;11.10;99.90
21672;DHT22;10997;52.242;8.168;2022-11-11T18:06:16;11.10;99.90
21672;DHT22;10997;52.242;8.168;2022-11-11T18:11:16;11.10;99.90
21672;DHT22;10997;52.242;8.168;2022-11-11T18:16:20;11.10;99.90
21672;DHT22;10997;52.242;8.168;2022-11-11T18:21:21;11.10;99.90
21672;DHT22;10997;52.242;8.168;2022-11-11T18:26:21;11.10;99.90
21672;DHT22;10997;52.242;8.168;2022-11-11T18:31:22;11.20;99.90
21672;DHT22;10997;52.242;8.168;2022-11-11T18:36:23;11.30;99.90
21672;DHT22;10997;52.242;8.168;2022-11-11T18:41:23;11.30;99.90
21672;DHT22;10997;52.242;8.168;2022-11-11T18:46:26;11.30;99.90
21672;DHT22;10997;52.242;8.168;2022-11-11T18:51:31;11.30;99.90
21672;DHT22;10997;52.242;8.168;2022-11-11T18:56:35;11.30;99.90
21672;DHT22;10997;52.242;8.168;2022-11-11T19:01:38;11.20;99.90
21672;DHT22;10997;52.242;8.168;2022-11-11T19:06:39;11.00;99.90
21672;DHT22;10997;52.242;8.168;2022-11-11T19:11:44;10.90;99.90
21672;DHT22;10997;52.242;8.168;2022-11-11T19:16:46;10.80;99.90
21672;DHT22;10997;52.242;8.168;2022-11-11T19:21:46;10.70;99.90
21672;DHT22;10997;52.242;8.168;2022-11-11T19:26:48;10.60;99.90
21672;DHT22;10997;52.242;8.168;2022-11-11T19:31:50;10.60;99.90
21672;DHT22;10997;52.242;8.168;2022-11-11T19:36:51;10.70;99.90
21672;DHT22;10997;52.242;8.168;2022-11-11T19:41:52;10.60;99.90
21672;DHT22;10997;52.242;8.168;2022-11-11T19:46:52;10.50;99.90
21672;DHT22;10997;52.242;8.168;2022-11-11T19:51:53;10.30;99.90
21672;DHT22;10997;52.242;8.168;2022-11-11T19:56:54;10.30;99.90
21672;DHT22;10997;52.242;8.168;2022-11-11T20:01:54;10.20;99.90
21672;DHT22;10997;52.242;8.168;2022-11-11T20:06:55;10.10;99.90
21672;DHT22;10997;52.242;8.168;2022-11-11T20:11:56;10.00;99.90
21672;DHT22;10997;52.242;8.168;2022-11-11T20:16:57;10.00;99.90
21672;DHT22;10997;52.242;8.168;2022-11-11T20:21:57;9.90;99.90
21672;DHT22;10997;52.242;8.168;2022-11-11T20:26:58;9.80;99.90
21672;DHT22;10997;52.242;8.168;2022-11-11T20:31:59;9.80;99.90
21672;DHT22;10997;52.242;8.168;2022-11-11T20:36:59;9.60;99.90
21672;DHT22;10997;52.242;8.168;2022-11-11T20:42:00;9.40;99.90
21672;DHT22;10997;52.242;8.168;2022-11-11T20:47:01;9.30;99.90
21672;DHT22;10997;52.242;8.168;2022-11-11T20:52:01;9.10;99.90
21672;DHT22;10997;52.242;8.168;2022-11-11T20:57:02;8.80;99.90
21672;DHT22;10997;52.242;8.168;2022-11-11T21:02:03;8.20;99.90
21672;DHT22;10997;52.242;8.168;2022-11-11T21:07:04;8.00;99.90
21672;DHT22;10997;52.242;8.168;2022-11-11T21:12:04;8.00;99.90
21672;DHT22;10997;52.242;8.168;2022-11-11T21:17:05;7.90;99.90
21672;DHT22;10997;52.242;8.168;2022-11-11T21:22:06;8.00;99.90
21672;DHT22;10997;52.242;8.168;2022-11-11T21:27:06;8.00;99.90
21672;DHT22;10997;52.242;8.168;2022-11-11T21:32:07;7.80;99.90
21672;DHT22;10997;52.242;8.168;2022-11-11T21:37:08;7.50;99.90
21672;DHT22;10997;52.242;8.168;2022-11-11T21:42:08;7.10;99.90
21672;DHT22;10997;52.242;8.168;2022-11-11T21:47:09;6.90;99.90
21672;DHT22;10997;52.242;8.168;2022-11-11T21:52:10;6.70;99.90
21672;DHT22;10997;52.242;8.168;2022-11-11T21:57:11;6.60;99.90
21672;DHT22;10997;52.242;8.168;2022-11-11T22:02:12;6.60;99.90
21672;DHT22;10997;52.242;8.168;2022-11-11T22:07:12;6.50;99.90
21672;DHT22;10997;52.242;8.168;2022-11-11T22:12:13;6.50;99.90
21672;DHT22;10997;52.242;8.168;2022-11-11T22:17:14;6.30;99.90
21672;DHT22;10997;52.242;8.168;2022-11-11T22:22:14;6.00;99.90
21672;DHT22;10997;52.242;8.168;2022-11-11T22:27:15;5.60;99.90
21672;DHT22;10997;52.242;8.168;2022-11-11T22:32:16;5.40;99.90
21672;DHT22;10997;52.242;8.168;2022-11-11T22:37:16;5.20;99.90
21672;DHT22;10997;52.242;8.168;2022-11-11T22:42:17;5.10;99.90
21672;DHT22;10997;52.242;8.168;2022-11-11T22:47:18;5.00;99.90
21672;DHT22;10997;52.242;8.168;2022-11-11T22:52:18;5.00;99.90
21672;DHT22;10997;52.242;8.168;2022-11-11T22:57:19;5.00;99.90
21672;DHT22;10997;52.242;8.168;2022-11-11T23:02:19;5.10;99.90
21672;DHT22;10997;52.242;8.168;2022-11-11T23:07:20;5.10;99.90
21672;DHT22;10997;52.242;8.168;2022-11-11T23:12:21;5.10;99.90
21672;DHT22;10997;52.242;8.168;2022-11-11T23:17:21;5.10;99.90
21672;DHT22;10997;52.242;8.168;2022-11-11T23:22:22;5.10;99.90
21672;DHT22;10997;52.242;8.168;2022-11-11T23:27:24;5.10;99.90
21672;DHT22;10997;52.242;8.168;2022-11-11T23:32:25;5.00;99.90
21672;DHT22;10997;52.242;8.168;2022-11-11T23:37:25;4.90;99.90
21672;DHT22;10997;52.242;8.168;2022-11-11T23:42:26;4.80;99.90
21672;DHT22;10997;52.242;8.168;2022-11-11T23:47:26;4.80;99.90
21672;DHT22;10997;52.242;8.168;2022-11-11T23:52:27;4.80;99.90
21672;DHT22;10997;52.242;8.168;2022-11-11T23:57:28;4.70;99.90
